<?xml version="1.0" encoding="UTF-8" standalone="no" ?>
<gpx xmlns="http://www.topografix.com/GPX/1/1" xmlns:xsi="http://www.w3.org/2001/XMLSchema-instance" xsi:schemaLocation="http://www.topografix.com/GPX/1/1 http://www.topografix.com/GPX/1/1/gpx.xsd" version="1.1" creator="VisuGPX - https://www.visugpx.com">
  <metadata>
    <name>luzech 6 descentes</name>
    <desc><![CDATA[parcours typé enduro avec de belles descentes]]></desc>
  </metadata>
  <trk>
    <name><![CDATA[2014-04-01-08-18-57]]></name>
    <trkseg>
      <trkpt lat="44.45" lon="1.30015">
        <ele>133.847</ele>
        <time>2014-04-01T12:26:32Z</time>
      </trkpt>
      <trkpt lat="44.45003" lon="1.30019">
        <ele>133.266</ele>
        <time>2014-04-01T12:26:36Z</time>
      </trkpt>
      <trkpt lat="44.45015" lon="1.30029">
        <ele>129.964</ele>
        <time>2014-04-01T12:26:41Z</time>
      </trkpt>
      <trkpt lat="44.45034" lon="1.30027">
        <ele>127.344</ele>
        <time>2014-04-01T12:26:45Z</time>
      </trkpt>
      <trkpt lat="44.45047" lon="1.30024">
        <ele>126.405</ele>
        <time>2014-04-01T12:26:49Z</time>
      </trkpt>
      <trkpt lat="44.45058" lon="1.30029">
        <ele>124.924</ele>
        <time>2014-04-01T12:26:53Z</time>
      </trkpt>
      <trkpt lat="44.4507" lon="1.30025">
        <ele>123.744</ele>
        <time>2014-04-01T12:26:56Z</time>
      </trkpt>
      <trkpt lat="44.45089" lon="1.30021">
        <ele>120.643</ele>
        <time>2014-04-01T12:27:00Z</time>
      </trkpt>
      <trkpt lat="44.4511" lon="1.3001">
        <ele>118.504</ele>
        <time>2014-04-01T12:27:05Z</time>
      </trkpt>
      <trkpt lat="44.45122" lon="1.30002">
        <ele>117.444</ele>
        <time>2014-04-01T12:27:09Z</time>
      </trkpt>
      <trkpt lat="44.45141" lon="1.29997">
        <ele>118.616</ele>
        <time>2014-04-01T12:27:14Z</time>
      </trkpt>
      <trkpt lat="44.45161" lon="1.29996">
        <ele>119.096</ele>
        <time>2014-04-01T12:27:18Z</time>
      </trkpt>
      <trkpt lat="44.45178" lon="1.29984">
        <ele>119.608</ele>
        <time>2014-04-01T12:27:22Z</time>
      </trkpt>
      <trkpt lat="44.45195" lon="1.29982">
        <ele>120.237</ele>
        <time>2014-04-01T12:27:26Z</time>
      </trkpt>
      <trkpt lat="44.45213" lon="1.29987">
        <ele>121.356</ele>
        <time>2014-04-01T12:27:30Z</time>
      </trkpt>
      <trkpt lat="44.45226" lon="1.29996">
        <ele>121.586</ele>
        <time>2014-04-01T12:27:33Z</time>
      </trkpt>
      <trkpt lat="44.45236" lon="1.29995">
        <ele>121.757</ele>
        <time>2014-04-01T12:27:35Z</time>
      </trkpt>
      <trkpt lat="44.45257" lon="1.29999">
        <ele>121.156</ele>
        <time>2014-04-01T12:27:40Z</time>
      </trkpt>
      <trkpt lat="44.45261" lon="1.30003">
        <ele>120.846</ele>
        <time>2014-04-01T12:27:41Z</time>
      </trkpt>
      <trkpt lat="44.45289" lon="1.30006">
        <ele>121.868</ele>
        <time>2014-04-01T12:27:47Z</time>
      </trkpt>
      <trkpt lat="44.45302" lon="1.30015">
        <ele>122.167</ele>
        <time>2014-04-01T12:27:50Z</time>
      </trkpt>
      <trkpt lat="44.45317" lon="1.3002">
        <ele>120.466</ele>
        <time>2014-04-01T12:27:53Z</time>
      </trkpt>
      <trkpt lat="44.45328" lon="1.30023">
        <ele>118.576</ele>
        <time>2014-04-01T12:27:55Z</time>
      </trkpt>
      <trkpt lat="44.45352" lon="1.30025">
        <ele>117.566</ele>
        <time>2014-04-01T12:27:59Z</time>
      </trkpt>
      <trkpt lat="44.45372" lon="1.3003">
        <ele>117.416</ele>
        <time>2014-04-01T12:28:03Z</time>
      </trkpt>
      <trkpt lat="44.45395" lon="1.30049">
        <ele>115.356</ele>
        <time>2014-04-01T12:28:08Z</time>
      </trkpt>
      <trkpt lat="44.454" lon="1.30051">
        <ele>114.525</ele>
        <time>2014-04-01T12:28:09Z</time>
      </trkpt>
      <trkpt lat="44.45425" lon="1.30048">
        <ele>111.895</ele>
        <time>2014-04-01T12:28:14Z</time>
      </trkpt>
      <trkpt lat="44.4544" lon="1.30039">
        <ele>112.585</ele>
        <time>2014-04-01T12:28:18Z</time>
      </trkpt>
      <trkpt lat="44.45444" lon="1.30041">
        <ele>112.646</ele>
        <time>2014-04-01T12:28:19Z</time>
      </trkpt>
      <trkpt lat="44.45463" lon="1.30045">
        <ele>111.307</ele>
        <time>2014-04-01T12:28:24Z</time>
      </trkpt>
      <trkpt lat="44.45467" lon="1.30046">
        <ele>111.417</ele>
        <time>2014-04-01T12:28:25Z</time>
      </trkpt>
      <trkpt lat="44.45484" lon="1.30039">
        <ele>111.388</ele>
        <time>2014-04-01T12:28:29Z</time>
      </trkpt>
      <trkpt lat="44.45493" lon="1.30038">
        <ele>111.628</ele>
        <time>2014-04-01T12:28:32Z</time>
      </trkpt>
      <trkpt lat="44.45499" lon="1.30033">
        <ele>112.198</ele>
        <time>2014-04-01T12:28:35Z</time>
      </trkpt>
      <trkpt lat="44.45513" lon="1.30035">
        <ele>112.829</ele>
        <time>2014-04-01T12:28:39Z</time>
      </trkpt>
      <trkpt lat="44.45534" lon="1.30029">
        <ele>112.608</ele>
        <time>2014-04-01T12:28:43Z</time>
      </trkpt>
      <trkpt lat="44.45548" lon="1.30034">
        <ele>114.069</ele>
        <time>2014-04-01T12:28:46Z</time>
      </trkpt>
      <trkpt lat="44.45563" lon="1.3002">
        <ele>113.709</ele>
        <time>2014-04-01T12:28:50Z</time>
      </trkpt>
      <trkpt lat="44.45566" lon="1.30019">
        <ele>114.459</ele>
        <time>2014-04-01T12:28:51Z</time>
      </trkpt>
      <trkpt lat="44.45583" lon="1.30014">
        <ele>115.879</ele>
        <time>2014-04-01T12:28:56Z</time>
      </trkpt>
      <trkpt lat="44.45596" lon="1.30012">
        <ele>115.379</ele>
        <time>2014-04-01T12:29:00Z</time>
      </trkpt>
      <trkpt lat="44.45604" lon="1.30012">
        <ele>115.359</ele>
        <time>2014-04-01T12:29:02Z</time>
      </trkpt>
      <trkpt lat="44.45619" lon="1.30009">
        <ele>115.319</ele>
        <time>2014-04-01T12:29:05Z</time>
      </trkpt>
      <trkpt lat="44.45648" lon="1.30014">
        <ele>114.398</ele>
        <time>2014-04-01T12:29:10Z</time>
      </trkpt>
      <trkpt lat="44.45659" lon="1.30011">
        <ele>114.948</ele>
        <time>2014-04-01T12:29:12Z</time>
      </trkpt>
      <trkpt lat="44.45672" lon="1.30007">
        <ele>115.138</ele>
        <time>2014-04-01T12:29:15Z</time>
      </trkpt>
      <trkpt lat="44.45698" lon="1.3">
        <ele>114.058</ele>
        <time>2014-04-01T12:29:21Z</time>
      </trkpt>
      <trkpt lat="44.45724" lon="1.3">
        <ele>113.019</ele>
        <time>2014-04-01T12:29:26Z</time>
      </trkpt>
      <trkpt lat="44.45739" lon="1.29994">
        <ele>111.748</ele>
        <time>2014-04-01T12:29:29Z</time>
      </trkpt>
      <trkpt lat="44.45746" lon="1.29986">
        <ele>111.529</ele>
        <time>2014-04-01T12:29:31Z</time>
      </trkpt>
      <trkpt lat="44.45769" lon="1.29975">
        <ele>109.548</ele>
        <time>2014-04-01T12:29:37Z</time>
      </trkpt>
      <trkpt lat="44.45772" lon="1.29974">
        <ele>109.408</ele>
        <time>2014-04-01T12:29:38Z</time>
      </trkpt>
      <trkpt lat="44.45796" lon="1.29968">
        <ele>107.938</ele>
        <time>2014-04-01T12:29:43Z</time>
      </trkpt>
      <trkpt lat="44.45816" lon="1.29961">
        <ele>107.058</ele>
        <time>2014-04-01T12:29:46Z</time>
      </trkpt>
      <trkpt lat="44.45828" lon="1.29954">
        <ele>107.439</ele>
        <time>2014-04-01T12:29:48Z</time>
      </trkpt>
      <trkpt lat="44.45848" lon="1.29949">
        <ele>108.4</ele>
        <time>2014-04-01T12:29:52Z</time>
      </trkpt>
      <trkpt lat="44.45874" lon="1.29948">
        <ele>109.239</ele>
        <time>2014-04-01T12:29:57Z</time>
      </trkpt>
      <trkpt lat="44.459" lon="1.29951">
        <ele>110.07</ele>
        <time>2014-04-01T12:30:02Z</time>
      </trkpt>
      <trkpt lat="44.45908" lon="1.29956">
        <ele>110.63</ele>
        <time>2014-04-01T12:30:04Z</time>
      </trkpt>
      <trkpt lat="44.45928" lon="1.2996">
        <ele>111.51</ele>
        <time>2014-04-01T12:30:08Z</time>
      </trkpt>
      <trkpt lat="44.45957" lon="1.29941">
        <ele>110.349</ele>
        <time>2014-04-01T12:30:13Z</time>
      </trkpt>
      <trkpt lat="44.46006" lon="1.29942">
        <ele>109.519</ele>
        <time>2014-04-01T12:30:21Z</time>
      </trkpt>
      <trkpt lat="44.46028" lon="1.29947">
        <ele>110.111</ele>
        <time>2014-04-01T12:30:25Z</time>
      </trkpt>
      <trkpt lat="44.46066" lon="1.29963">
        <ele>110.521</ele>
        <time>2014-04-01T12:30:32Z</time>
      </trkpt>
      <trkpt lat="44.46094" lon="1.29974">
        <ele>110.581</ele>
        <time>2014-04-01T12:30:37Z</time>
      </trkpt>
      <trkpt lat="44.46116" lon="1.2998">
        <ele>112.441</ele>
        <time>2014-04-01T12:30:41Z</time>
      </trkpt>
      <trkpt lat="44.46138" lon="1.29988">
        <ele>113.191</ele>
        <time>2014-04-01T12:30:46Z</time>
      </trkpt>
      <trkpt lat="44.46158" lon="1.29996">
        <ele>114.251</ele>
        <time>2014-04-01T12:30:50Z</time>
      </trkpt>
      <trkpt lat="44.46178" lon="1.30011">
        <ele>115.772</ele>
        <time>2014-04-01T12:30:54Z</time>
      </trkpt>
      <trkpt lat="44.46201" lon="1.30035">
        <ele>111.81</ele>
        <time>2014-04-01T12:30:59Z</time>
      </trkpt>
      <trkpt lat="44.46205" lon="1.30035">
        <ele>111.5</ele>
        <time>2014-04-01T12:31:00Z</time>
      </trkpt>
      <trkpt lat="44.46238" lon="1.30028">
        <ele>108.69</ele>
        <time>2014-04-01T12:31:08Z</time>
      </trkpt>
      <trkpt lat="44.46246" lon="1.30026">
        <ele>109.481</ele>
        <time>2014-04-01T12:31:10Z</time>
      </trkpt>
      <trkpt lat="44.46289" lon="1.30013">
        <ele>104.079</ele>
        <time>2014-04-01T12:31:20Z</time>
      </trkpt>
      <trkpt lat="44.46313" lon="1.30003">
        <ele>102.8</ele>
        <time>2014-04-01T12:31:25Z</time>
      </trkpt>
      <trkpt lat="44.46335" lon="1.29991">
        <ele>106.382</ele>
        <time>2014-04-01T12:31:31Z</time>
      </trkpt>
      <trkpt lat="44.46358" lon="1.29992">
        <ele>108.092</ele>
        <time>2014-04-01T12:31:36Z</time>
      </trkpt>
      <trkpt lat="44.46395" lon="1.29996">
        <ele>108.221</ele>
        <time>2014-04-01T12:31:43Z</time>
      </trkpt>
      <trkpt lat="44.46435" lon="1.29994">
        <ele>108.911</ele>
        <time>2014-04-01T12:31:50Z</time>
      </trkpt>
      <trkpt lat="44.46451" lon="1.29996">
        <ele>108.271</ele>
        <time>2014-04-01T12:31:53Z</time>
      </trkpt>
      <trkpt lat="44.46469" lon="1.29985">
        <ele>104.17</ele>
        <time>2014-04-01T12:31:57Z</time>
      </trkpt>
      <trkpt lat="44.46496" lon="1.29936">
        <ele>100.921</ele>
        <time>2014-04-01T12:32:05Z</time>
      </trkpt>
      <trkpt lat="44.46502" lon="1.29897">
        <ele>100.681</ele>
        <time>2014-04-01T12:32:10Z</time>
      </trkpt>
      <trkpt lat="44.46501" lon="1.29888">
        <ele>100.661</ele>
        <time>2014-04-01T12:32:11Z</time>
      </trkpt>
      <trkpt lat="44.46496" lon="1.29861">
        <ele>100.531</ele>
        <time>2014-04-01T12:32:14Z</time>
      </trkpt>
      <trkpt lat="44.46473" lon="1.29818">
        <ele>99.481</ele>
        <time>2014-04-01T12:32:19Z</time>
      </trkpt>
      <trkpt lat="44.46454" lon="1.298">
        <ele>99.671</ele>
        <time>2014-04-01T12:32:22Z</time>
      </trkpt>
      <trkpt lat="44.4642" lon="1.29766">
        <ele>101.052</ele>
        <time>2014-04-01T12:32:28Z</time>
      </trkpt>
      <trkpt lat="44.46394" lon="1.29728">
        <ele>101.442</ele>
        <time>2014-04-01T12:32:34Z</time>
      </trkpt>
      <trkpt lat="44.4639" lon="1.29722">
        <ele>101.532</ele>
        <time>2014-04-01T12:32:35Z</time>
      </trkpt>
      <trkpt lat="44.46366" lon="1.29703">
        <ele>101.651</ele>
        <time>2014-04-01T12:32:40Z</time>
      </trkpt>
      <trkpt lat="44.46337" lon="1.29677">
        <ele>102.962</ele>
        <time>2014-04-01T12:32:47Z</time>
      </trkpt>
      <trkpt lat="44.46309" lon="1.29652">
        <ele>104.962</ele>
        <time>2014-04-01T12:32:54Z</time>
      </trkpt>
      <trkpt lat="44.46279" lon="1.29624">
        <ele>107.392</ele>
        <time>2014-04-01T12:33:02Z</time>
      </trkpt>
      <trkpt lat="44.46272" lon="1.29617">
        <ele>109.122</ele>
        <time>2014-04-01T12:33:06Z</time>
      </trkpt>
      <trkpt lat="44.4627" lon="1.29614">
        <ele>109.732</ele>
        <time>2014-04-01T12:33:09Z</time>
      </trkpt>
      <trkpt lat="44.46267" lon="1.29612">
        <ele>110.091</ele>
        <time>2014-04-01T12:33:13Z</time>
      </trkpt>
    </trkseg>
  </trk>
</gpx>